Time;durP1;ratioP1;P1;durP2;ratioP2;P2;SDS_P1;SDS_P2;PMS_P1;PMS_P2;Temp;Humidity;BMP_temperature;BMP_pressure;BME280_temperature;BME280_humidity;BME280_pressure;Samples;Min_cycle;Max_cycle;Signal;HPM_P1;HPM_P2
2024/04/26 00:01:55;;;;;;;;;;;9.40;1.00;;;;;;5417785;26;19929;-71
2024/04/26 00:04:20;;;;;;;;;;;9.40;1.00;;;;;;5418551;26;20269;-71
2024/04/26 00:06:45;;;;;;;;;;;9.40;1.00;;;;;;5418168;26;19936;-70
2024/04/26 00:09:11;;;;;;;;;;;9.40;1.00;;;;;;5418166;26;19929;-71
2024/04/26 00:11:39;;;;;;;;;;;9.30;1.00;;;;;;5417639;26;19944;-72
2024/04/26 00:14:05;;;;;;;;;;;9.30;1.00;;;;;;5417901;26;19933;-71
2024/04/26 00:16:36;;;;;;;;;;;9.30;1.00;;;;;;5422103;26;19929;-73
2024/04/26 00:19:02;;;;;;;;;;;9.30;1.00;;;;;;5425200;26;20003;-73
2024/04/26 00:21:27;;;;;;;;;;;9.30;1.00;;;;;;5423661;26;19940;-73
2024/04/26 00:23:53;;;;;;;;;;;9.40;1.00;;;;;;5426453;26;19998;-72
2024/04/26 00:26:18;;;;;;;;;;;9.30;1.00;;;;;;5422194;26;19936;-73
2024/04/26 00:28:44;;;;;;;;;;;9.30;1.00;;;;;;5423068;26;19928;-73
2024/04/26 00:31:09;;;;;;;;;;;9.30;1.00;;;;;;5423864;26;19937;-73
2024/04/26 00:33:39;;;;;;;;;;;9.30;1.00;;;;;;5424260;26;19936;-72
2024/04/26 00:36:04;;;;;;;;;;;9.20;1.00;;;;;;5424896;26;19929;-73
2024/04/26 00:38:30;;;;;;;;;;;9.00;1.00;;;;;;5424071;26;19929;-73
2024/04/26 00:40:55;;;;;;;;;;;9.00;1.00;;;;;;5423084;26;19998;-72
2024/04/26 00:43:21;;;;;;;;;;;8.90;1.00;;;;;;5423263;26;19929;-73
2024/04/26 00:45:46;;;;;;;;;;;8.90;1.00;;;;;;5421625;26;19929;-73
2024/04/26 00:48:12;;;;;;;;;;;8.90;1.00;;;;;;5421019;26;19937;-73
2024/04/26 00:50:37;;;;;;;;;;;8.90;1.00;;;;;;5423399;26;19933;-71
2024/04/26 00:53:03;;;;;;;;;;;8.90;1.00;;;;;;5423199;26;19973;-73
2024/04/26 00:55:29;;;;;;;;;;;8.90;1.00;;;;;;5418807;26;19941;-72
2024/04/26 00:57:55;;;;;;;;;;;8.90;1.00;;;;;;5416214;26;19979;-72
2024/04/26 01:00:20;;;;;;;;;;;8.90;1.00;;;;;;5417465;26;19937;-72
2024/04/26 01:02:46;;;;;;;;;;;8.90;1.00;;;;;;5416804;26;19933;-71
2024/04/26 01:05:11;;;;;;;;;;;8.80;1.00;;;;;;5417253;26;19933;-72
2024/04/26 01:07:37;;;;;;;;;;;8.90;1.00;;;;;;5417720;26;19936;-72
2024/04/26 01:10:03;;;;;;;;;;;8.90;1.00;;;;;;5417284;26;20278;-71
2024/04/26 01:12:28;;;;;;;;;;;8.80;1.00;;;;;;5416841;26;19968;-72
2024/04/26 01:14:54;;;;;;;;;;;8.90;1.00;;;;;;5417076;26;20296;-71
2024/04/26 01:17:19;;;;;;;;;;;8.90;1.00;;;;;;5417267;26;19929;-71
2024/04/26 01:19:45;;;;;;;;;;;8.80;1.00;;;;;;5417166;26;19998;-71
2024/04/26 01:22:32;;;;;;;;;;;8.70;1.00;;;;;;5416668;26;19929;-71
2024/04/26 01:24:57;;;;;;;;;;;8.70;1.00;;;;;;5415300;26;19936;-70
2024/04/26 01:27:23;;;;;;;;;;;8.70;1.00;;;;;;5417034;26;19965;-70
2024/04/26 01:29:48;;;;;;;;;;;8.70;1.00;;;;;;5416941;26;19929;-71
2024/04/26 01:32:14;;;;;;;;;;;8.60;1.00;;;;;;5419223;26;19929;-71
2024/04/26 01:34:39;;;;;;;;;;;8.70;1.00;;;;;;5424504;26;19980;-73
2024/04/26 01:37:05;;;;;;;;;;;8.60;1.00;;;;;;5422752;26;19940;-73
2024/04/26 01:39:30;;;;;;;;;;;8.60;1.00;;;;;;5424065;26;19929;-73
2024/04/26 01:41:56;;;;;;;;;;;8.60;1.00;;;;;;5424798;26;19998;-73
2024/04/26 01:44:21;;;;;;;;;;;8.50;1.00;;;;;;5423678;26;20270;-72
2024/04/26 01:46:47;;;;;;;;;;;8.60;1.00;;;;;;5421961;26;19935;-72
2024/04/26 01:49:12;;;;;;;;;;;8.60;1.00;;;;;;5416692;26;20292;-72
2024/04/26 01:51:38;;;;;;;;;;;8.60;1.00;;;;;;5416222;26;19929;-72
2024/04/26 01:54:03;;;;;;;;;;;8.60;1.00;;;;;;5416803;26;19997;-72
2024/04/26 01:56:29;;;;;;;;;;;8.60;1.00;;;;;;5416552;26;20389;-72
2024/04/26 01:58:54;;;;;;;;;;;8.60;1.00;;;;;;5416496;26;19929;-72
2024/04/26 02:01:23;;;;;;;;;;;8.60;1.00;;;;;;5416123;26;19936;-71
2024/04/26 02:03:49;;;;;;;;;;;8.60;1.00;;;;;;5416603;26;20429;-71
2024/04/26 02:06:15;;;;;;;;;;;8.60;1.00;;;;;;5416577;26;19937;-71
2024/04/26 02:08:43;;;;;;;;;;;8.60;1.00;;;;;;5416081;26;19998;-71
2024/04/26 02:11:08;;;;;;;;;;;8.70;1.00;;;;;;5416389;26;20348;-71
2024/04/26 02:13:34;;;;;;;;;;;8.70;1.00;;;;;;5415962;26;19942;-72
2024/04/26 02:15:59;;;;;;;;;;;8.70;1.00;;;;;;5416392;26;19937;-71
2024/04/26 02:18:25;;;;;;;;;;;8.70;1.00;;;;;;5416391;26;20368;-71
2024/04/26 02:20:50;;;;;;;;;;;8.80;1.00;;;;;;5416330;26;19962;-71
2024/04/26 02:23:16;;;;;;;;;;;8.80;1.00;;;;;;5415863;26;19929;-71
2024/04/26 02:25:41;;;;;;;;;;;8.90;1.00;;;;;;5416079;26;19929;-71
2024/04/26 02:28:06;;;;;;;;;;;8.90;1.00;;;;;;5414424;26;19929;-71
2024/04/26 02:30:32;;;;;;;;;;;8.90;1.00;;;;;;5415952;26;19935;-71
2024/04/26 02:32:59;;;;;;;;;;;9.00;1.00;;;;;;5415675;26;19944;-71
2024/04/26 02:35:25;;;;;;;;;;;8.90;1.00;;;;;;5416126;26;20361;-71
2024/04/26 02:37:52;;;;;;;;;;;8.90;1.00;;;;;;5416012;26;19936;-73
2024/04/26 02:40:17;;;;;;;;;;;8.90;1.00;;;;;;5415875;26;19937;-70
2024/04/26 02:42:43;;;;;;;;;;;9.00;1.00;;;;;;5415372;26;19966;-70
2024/04/26 02:45:09;;;;;;;;;;;8.90;1.00;;;;;;5415808;26;19935;-70
2024/04/26 02:47:35;;;;;;;;;;;9.00;1.00;;;;;;5416000;26;19929;-71
2024/04/26 02:50:01;;;;;;;;;;;9.00;1.00;;;;;;5415853;26;19929;-71
2024/04/26 02:52:26;;;;;;;;;;;9.00;1.00;;;;;;5415542;26;19936;-71
2024/04/26 02:54:52;;;;;;;;;;;9.00;1.00;;;;;;5415480;26;19937;-71
2024/04/26 02:57:17;;;;;;;;;;;9.00;1.00;;;;;;5415849;26;19978;-71
2024/04/26 02:59:42;;;;;;;;;;;8.90;1.00;;;;;;5415533;26;19961;-71
2024/04/26 03:02:08;;;;;;;;;;;8.90;1.00;;;;;;5415057;26;19961;-71
2024/04/26 03:04:33;;;;;;;;;;;8.90;1.00;;;;;;5417724;26;19929;-72
2024/04/26 03:06:59;;;;;;;;;;;8.80;1.00;;;;;;5420032;26;20380;-73
2024/04/26 03:09:25;;;;;;;;;;;8.90;1.00;;;;;;5420677;26;19929;-73
2024/04/26 03:11:50;;;;;;;;;;;8.80;1.00;;;;;;5418264;26;19930;-70
2024/04/26 03:14:15;;;;;;;;;;;8.90;1.00;;;;;;5415320;26;20380;-71
2024/04/26 03:16:42;;;;;;;;;;;8.90;1.00;;;;;;5415283;26;20002;-70
2024/04/26 03:19:09;;;;;;;;;;;8.80;1.00;;;;;;5416921;26;19929;-73
2024/04/26 03:21:35;;;;;;;;;;;8.80;1.00;;;;;;5422957;26;19936;-73
2024/04/26 03:24:02;;;;;;;;;;;8.80;1.00;;;;;;5423034;26;20269;-73
2024/04/26 03:26:27;;;;;;;;;;;8.80;1.00;;;;;;5426474;26;20268;-73
2024/04/26 03:28:53;;;;;;;;;;;8.70;1.00;;;;;;5426157;26;19929;-73
2024/04/26 03:31:19;;;;;;;;;;;8.70;1.00;;;;;;5425838;26;19998;-69
2024/04/26 03:33:44;;;;;;;;;;;8.70;1.00;;;;;;5427765;26;19937;-73
2024/04/26 03:36:10;;;;;;;;;;;8.60;1.00;;;;;;5427123;26;19929;-71
2024/04/26 03:38:35;;;;;;;;;;;8.60;1.00;;;;;;5425137;26;20331;-73
2024/04/26 03:41:01;;;;;;;;;;;8.60;1.00;;;;;;5426715;26;19929;-72
2024/04/26 03:43:26;;;;;;;;;;;8.60;1.00;;;;;;5426923;26;20368;-72
2024/04/26 03:45:52;;;;;;;;;;;8.60;1.00;;;;;;5424016;26;19929;-73
2024/04/26 03:48:18;;;;;;;;;;;8.50;1.00;;;;;;5424289;26;19944;-73
2024/04/26 03:50:44;;;;;;;;;;;8.50;1.00;;;;;;5425882;26;20304;-73
2024/04/26 03:53:10;;;;;;;;;;;8.50;1.00;;;;;;5427623;26;19949;-72
2024/04/26 03:55:35;;;;;;;;;;;8.40;1.00;;;;;;5428967;26;19998;-72
2024/04/26 03:58:04;;;;;;;;;;;8.40;1.00;;;;;;5422552;26;19936;-73
2024/04/26 04:00:32;;;;;;;;;;;8.40;1.00;;;;;;5424715;26;19975;-73
2024/04/26 04:02:58;;;;;;;;;;;8.40;1.00;;;;;;5416383;26;19929;-72
2024/04/26 04:05:25;;;;;;;;;;;8.40;1.00;;;;;;5416470;26;20297;-72
2024/04/26 04:07:55;;;;;;;;;;;8.40;1.00;;;;;;5418118;26;19936;-71
2024/04/26 04:10:21;;;;;;;;;;;8.50;1.00;;;;;;5418183;26;19929;-71
2024/04/26 04:12:47;;;;;;;;;;;8.50;1.00;;;;;;5417491;26;20363;-71
2024/04/26 04:15:13;;;;;;;;;;;8.50;1.00;;;;;;5418183;26;19928;-71
2024/04/26 04:17:38;;;;;;;;;;;8.50;1.00;;;;;;5418092;26;20010;-71
2024/04/26 04:20:04;;;;;;;;;;;8.50;1.00;;;;;;5417970;26;19961;-71
2024/04/26 04:22:30;;;;;;;;;;;8.60;1.00;;;;;;5417317;26;19928;-71
2024/04/26 04:24:55;;;;;;;;;;;8.50;1.00;;;;;;5417925;26;19929;-71
2024/04/26 04:27:21;;;;;;;;;;;8.50;1.00;;;;;;5418201;26;20010;-71
2024/04/26 04:29:46;;;;;;;;;;;8.50;1.00;;;;;;5418122;26;19936;-71
2024/04/26 04:32:12;;;;;;;;;;;8.50;1.00;;;;;;5417447;26;19929;-71
2024/04/26 04:34:37;;;;;;;;;;;8.50;1.00;;;;;;5417654;26;19937;-71
2024/04/26 04:37:03;;;;;;;;;;;8.50;1.00;;;;;;5417625;26;19956;-71
2024/04/26 04:39:28;;;;;;;;;;;8.40;1.00;;;;;;5418002;26;19961;-71
2024/04/26 04:41:54;;;;;;;;;;;8.40;1.00;;;;;;5417149;26;19941;-71
2024/04/26 04:44:19;;;;;;;;;;;8.40;1.00;;;;;;5417555;26;19962;-71
2024/04/26 04:46:45;;;;;;;;;;;8.40;1.00;;;;;;5393410;26;19945;-72
2024/04/26 04:49:10;;;;;;;;;;;8.30;1.00;;;;;;5382023;26;19999;-71
2024/04/26 04:51:36;;;;;;;;;;;8.40;1.00;;;;;;5381440;26;20025;-71
2024/04/26 04:54:01;;;;;;;;;;;8.30;1.00;;;;;;5381948;26;19954;-70
2024/04/26 04:56:27;;;;;;;;;;;8.40;1.00;;;;;;5382213;26;19939;-71
2024/04/26 04:58:52;;;;;;;;;;;8.40;1.00;;;;;;5381884;26;19930;-70
2024/04/26 05:01:18;;;;;;;;;;;8.40;1.00;;;;;;5381789;26;20365;-71
2024/04/26 05:03:43;;;;;;;;;;;8.40;1.00;;;;;;5381606;26;19936;-70
2024/04/26 05:06:09;;;;;;;;;;;8.40;1.00;;;;;;5381730;26;19929;-70
2024/04/26 05:08:34;;;;;;;;;;;8.40;1.00;;;;;;5381779;26;19936;-71
2024/04/26 05:11:00;;;;;;;;;;;8.40;1.00;;;;;;5381595;26;20033;-71
2024/04/26 05:13:25;;;;;;;;;;;8.50;1.00;;;;;;5381697;26;19953;-71
2024/04/26 05:15:51;;;;;;;;;;;8.50;1.00;;;;;;5381676;26;19929;-72
2024/04/26 05:18:17;;;;;;;;;;;8.60;1.00;;;;;;5381643;26;19937;-71
2024/04/26 05:20:42;;;;;;;;;;;8.60;1.00;;;;;;5381570;26;20347;-70
2024/04/26 05:23:08;;;;;;;;;;;8.60;1.00;;;;;;5381388;26;19929;-72
2024/04/26 05:25:33;;;;;;;;;;;8.80;1.00;;;;;;5381554;26;19939;-70
2024/04/26 05:27:59;;;;;;;;;;;8.80;1.00;;;;;;5381561;26;19965;-70
2024/04/26 05:33:09;;;;;;;;;;;8.90;1.00;;;;;;5477546;25;19924;-74
2024/04/26 05:35:35;;;;;;;;;;;9.10;1.00;;;;;;5480822;26;19929;-74
2024/04/26 05:38:00;;;;;;;;;;;9.20;1.00;;;;;;5479321;26;19929;-74
2024/04/26 05:40:26;;;;;;;;;;;9.30;1.00;;;;;;5478721;26;20272;-74
2024/04/26 05:42:52;;;;;;;;;;;9.30;1.00;;;;;;5443034;26;19935;-75
2024/04/26 05:45:18;;;;;;;;;;;9.40;1.00;;;;;;5444383;26;19929;-73
2024/04/26 05:47:45;;;;;;;;;;;9.40;1.00;;;;;;5443305;26;19929;-75
2024/04/26 05:50:10;;;;;;;;;;;9.40;1.00;;;;;;5440973;26;20005;-73
2024/04/26 05:52:36;;;;;;;;;;;9.40;1.00;;;;;;5440550;26;19929;-75
2024/04/26 05:55:01;;;;;;;;;;;9.50;1.00;;;;;;5440978;26;19949;-74
2024/04/26 05:57:27;;;;;;;;;;;9.60;1.00;;;;;;5440049;26;19964;-72
2024/04/26 05:59:54;;;;;;;;;;;9.70;1.00;;;;;;5440160;26;19929;-74
2024/04/26 06:02:19;;;;;;;;;;;9.70;1.00;;;;;;5434879;26;19929;-74
2024/04/26 06:04:48;;;;;;;;;;;9.80;1.00;;;;;;5436812;26;19998;-74
2024/04/26 06:07:13;;;;;;;;;;;9.90;1.00;;;;;;5435787;26;19929;-73
2024/04/26 06:09:39;;;;;;;;;;;9.90;1.00;;;;;;5434118;26;19939;-73
2024/04/26 06:12:04;;;;;;;;;;;9.90;1.00;;;;;;5433558;26;19929;-73
2024/04/26 06:14:30;;;;;;;;;;;9.90;1.00;;;;;;5434115;26;19937;-73
2024/04/26 06:16:57;;;;;;;;;;;9.80;1.00;;;;;;5434354;26;19941;-73
2024/04/26 06:19:22;;;;;;;;;;;9.70;1.00;;;;;;5434319;26;20385;-73
2024/04/26 06:21:48;;;;;;;;;;;9.80;1.00;;;;;;5433813;26;19936;-73
2024/04/26 06:24:13;;;;;;;;;;;9.80;1.00;;;;;;5433879;26;20001;-72
2024/04/26 06:26:39;;;;;;;;;;;9.90;1.00;;;;;;5433907;26;19961;-72
2024/04/26 06:29:06;;;;;;;;;;;9.80;1.00;;;;;;5433826;26;20440;-72
2024/04/26 06:31:32;;;;;;;;;;;9.90;1.00;;;;;;5433151;26;20364;-72
2024/04/26 06:33:57;;;;;;;;;;;10.00;1.00;;;;;;5433771;26;19936;-74
2024/04/26 06:36:22;;;;;;;;;;;10.10;1.00;;;;;;5433790;26;20328;-72
2024/04/26 06:38:48;;;;;;;;;;;10.30;1.00;;;;;;5433691;26;19929;-72
2024/04/26 06:41:13;;;;;;;;;;;10.40;1.00;;;;;;5433548;26;19936;-73
2024/04/26 06:43:39;;;;;;;;;;;10.60;1.00;;;;;;5422139;26;19941;-72
2024/04/26 06:46:05;;;;;;;;;;;10.80;1.00;;;;;;5418265;26;19969;-72
2024/04/26 06:48:30;;;;;;;;;;;10.80;1.00;;;;;;5418194;26;19928;-72
2024/04/26 06:50:55;;;;;;;;;;;10.90;1.00;;;;;;5418062;26;19965;-73
2024/04/26 06:53:21;;;;;;;;;;;10.90;1.00;;;;;;5421953;26;20377;-75
2024/04/26 06:55:46;;;;;;;;;;;10.90;1.00;;;;;;5423462;26;20021;-74
2024/04/26 06:58:12;;;;;;;;;;;10.90;1.00;;;;;;5422597;26;19936;-74
2024/04/26 07:00:37;;;;;;;;;;;10.90;1.00;;;;;;5422247;26;19935;-74
2024/04/26 07:03:03;;;;;;;;;;;11.00;1.00;;;;;;5420353;26;20006;-75
2024/04/26 07:05:28;;;;;;;;;;;11.00;1.00;;;;;;5420494;26;19929;-74
2024/04/26 07:07:54;;;;;;;;;;;11.10;1.00;;;;;;5418222;26;20001;-74
2024/04/26 07:10:19;;;;;;;;;;;11.30;1.00;;;;;;5419845;26;19929;-75
2024/04/26 07:12:45;;;;;;;;;;;11.30;1.00;;;;;;5419077;26;20421;-75
2024/04/26 07:15:10;;;;;;;;;;;11.40;1.00;;;;;;5420763;26;19949;-74
2024/04/26 07:17:38;;;;;;;;;;;11.40;1.00;;;;;;5420110;26;19965;-73
2024/04/26 07:20:05;;;;;;;;;;;11.60;1.00;;;;;;5419508;26;19953;-75
2024/04/26 07:22:30;;;;;;;;;;;11.60;1.00;;;;;;5419417;26;19998;-75
2024/04/26 07:24:56;;;;;;;;;;;11.70;1.00;;;;;;5419826;26;20305;-74
2024/04/26 07:27:22;;;;;;;;;;;11.90;1.00;;;;;;5418430;26;19936;-73
2024/04/26 07:29:47;;;;;;;;;;;12.00;1.00;;;;;;5417725;26;20361;-73
2024/04/26 07:32:13;;;;;;;;;;;12.00;1.00;;;;;;5416927;26;19935;-73
2024/04/26 07:34:38;;;;;;;;;;;12.00;1.00;;;;;;5417566;26;20283;-73
2024/04/26 07:37:04;;;;;;;;;;;12.10;1.00;;;;;;5417544;26;19961;-73
2024/04/26 07:39:29;;;;;;;;;;;12.20;1.00;;;;;;5417545;26;19957;-73
2024/04/26 07:41:55;;;;;;;;;;;12.30;1.00;;;;;;5417102;26;19936;-73
2024/04/26 07:44:20;;;;;;;;;;;12.50;1.00;;;;;;5417814;26;20249;-73
2024/04/26 07:46:46;;;;;;;;;;;12.60;1.00;;;;;;5417400;26;19961;-73
2024/04/26 07:49:11;;;;;;;;;;;12.60;1.00;;;;;;5417389;26;19998;-73
2024/04/26 07:51:38;;;;;;;;;;;12.70;1.00;;;;;;5417219;26;19936;-73
2024/04/26 07:54:03;;;;;;;;;;;12.80;1.00;;;;;;5416600;26;19936;-73
2024/04/26 07:56:29;;;;;;;;;;;12.90;1.00;;;;;;5416806;26;19940;-73
2024/04/26 07:58:55;;;;;;;;;;;12.80;1.00;;;;;;5417689;26;19936;-73
2024/04/26 08:01:21;;;;;;;;;;;12.80;1.00;;;;;;5416664;26;19930;-73
2024/04/26 08:03:46;;;;;;;;;;;12.80;1.00;;;;;;5417333;26;19928;-73
2024/04/26 08:06:12;;;;;;;;;;;12.80;1.00;;;;;;5417131;26;19944;-73
2024/04/26 08:08:37;;;;;;;;;;;12.90;1.00;;;;;;5417228;26;19929;-73
2024/04/26 08:11:03;;;;;;;;;;;13.00;1.00;;;;;;5417100;26;19929;-73
2024/04/26 08:13:28;;;;;;;;;;;12.90;1.00;;;;;;5416803;26;20566;-73
2024/04/26 08:15:54;;;;;;;;;;;12.90;1.00;;;;;;5416984;26;19929;-73
2024/04/26 08:18:19;;;;;;;;;;;13.00;1.00;;;;;;5416941;26;19929;-73
2024/04/26 08:20:45;;;;;;;;;;;13.10;1.00;;;;;;5416879;26;19940;-73
2024/04/26 08:23:10;;;;;;;;;;;13.10;1.00;;;;;;5416902;26;19929;-73
2024/04/26 08:25:36;;;;;;;;;;;13.00;1.00;;;;;;5416882;26;19929;-73
2024/04/26 08:28:01;;;;;;;;;;;12.90;1.00;;;;;;5416910;26;19998;-73
2024/04/26 08:30:28;;;;;;;;;;;12.90;1.00;;;;;;5416638;26;19929;-73
2024/04/26 08:32:53;;;;;;;;;;;13.10;1.00;;;;;;5416409;26;20268;-73
2024/04/26 08:35:19;;;;;;;;;;;13.00;1.00;;;;;;5416789;26;19935;-73
2024/04/26 08:37:44;;;;;;;;;;;13.00;1.00;;;;;;5416738;26;19929;-73
2024/04/26 08:40:10;;;;;;;;;;;13.00;1.00;;;;;;5416662;26;19929;-73
2024/04/26 08:42:36;;;;;;;;;;;13.00;1.00;;;;;;5416271;26;19956;-73
2024/04/26 08:45:02;;;;;;;;;;;13.00;1.00;;;;;;5416696;26;19929;-72
2024/04/26 08:47:29;;;;;;;;;;;13.00;1.00;;;;;;5418569;26;20413;-74
2024/04/26 08:49:55;;;;;;;;;;;13.00;1.00;;;;;;5419175;26;19953;-75
2024/04/26 08:52:23;;;;;;;;;;;13.00;1.00;;;;;;5419248;26;20267;-75
2024/04/26 08:54:48;;;;;;;;;;;13.10;1.00;;;;;;5418948;26;19936;-74
2024/04/26 08:57:14;;;;;;;;;;;13.20;1.00;;;;;;5419002;26;19929;-73
2024/04/26 08:59:43;;;;;;;;;;;13.10;1.00;;;;;;5419105;26;20249;-74
2024/04/26 09:02:09;;;;;;;;;;;13.10;1.00;;;;;;5419261;26;19936;-74
2024/04/26 09:04:36;;;;;;;;;;;13.00;1.00;;;;;;5419345;26;19929;-75
2024/04/26 09:07:02;;;;;;;;;;;12.90;1.00;;;;;;5417984;26;19928;-75
2024/04/26 09:09:27;;;;;;;;;;;12.70;1.00;;;;;;5418693;26;19936;-75
2024/04/26 09:11:57;;;;;;;;;;;12.50;1.00;;;;;;5418368;26;19929;-74
2024/04/26 09:14:23;;;;;;;;;;;12.40;1.00;;;;;;5418215;26;19928;-74
2024/04/26 09:16:48;;;;;;;;;;;12.30;1.00;;;;;;5418470;26;19936;-75
2024/04/26 09:19:13;;;;;;;;;;;12.40;1.00;;;;;;5418846;26;20446;-75
2024/04/26 09:21:39;;;;;;;;;;;12.50;1.00;;;;;;5418402;26;19929;-74
2024/04/26 09:24:05;;;;;;;;;;;12.40;1.00;;;;;;5418952;26;20363;-74
2024/04/26 09:26:30;;;;;;;;;;;12.40;1.00;;;;;;5417093;26;20365;-73
2024/04/26 09:28:56;;;;;;;;;;;12.50;1.00;;;;;;5418782;26;19937;-73
2024/04/26 09:31:21;;;;;;;;;;;12.70;1.00;;;;;;5415202;26;20396;-73
2024/04/26 09:33:51;;;;;;;;;;;12.70;1.00;;;;;;5415937;26;19998;-73
2024/04/26 09:36:18;;;;;;;;;;;12.80;1.00;;;;;;5415804;26;19936;-73
2024/04/26 09:38:44;;;;;;;;;;;12.70;1.00;;;;;;5415841;26;19937;-73
2024/04/26 09:41:09;;;;;;;;;;;12.50;1.00;;;;;;5415707;26;19929;-73
2024/04/26 09:43:35;;;;;;;;;;;12.40;1.00;;;;;;5415274;26;19936;-73
2024/04/26 09:46:01;;;;;;;;;;;12.30;1.00;;;;;;5415713;26;19956;-73
2024/04/26 09:48:27;;;;;;;;;;;12.10;1.00;;;;;;5415646;26;19965;-73
2024/04/26 09:50:55;;;;;;;;;;;11.90;1.00;;;;;;5415433;26;19936;-73
2024/04/26 09:53:22;;;;;;;;;;;11.90;1.00;;;;;;5415145;26;20365;-73
2024/04/26 09:55:48;;;;;;;;;;;11.90;1.00;;;;;;5415371;26;19932;-73
2024/04/26 09:58:13;;;;;;;;;;;11.90;1.00;;;;;;5415306;26;20488;-73
2024/04/26 10:00:39;;;;;;;;;;;12.10;1.00;;;;;;5416088;26;19929;-75
2024/04/26 10:03:05;;;;;;;;;;;12.10;1.00;;;;;;5417449;26;19937;-72
2024/04/26 10:05:32;;;;;;;;;;;12.10;1.00;;;;;;5418306;26;19993;-74
2024/04/26 10:08:01;;;;;;;;;;;12.00;1.00;;;;;;5418328;26;19929;-74
2024/04/26 10:10:28;;;;;;;;;;;11.80;1.00;;;;;;5417812;26;19944;-73
2024/04/26 10:13:00;;;;;;;;;;;11.80;1.00;;;;;;5417579;26;19937;-74
2024/04/26 10:15:25;;;;;;;;;;;11.80;1.00;;;;;;5417821;26;19941;-74
2024/04/26 10:17:51;;;;;;;;;;;11.90;1.00;;;;;;5418713;26;19998;-74
2024/04/26 10:20:20;;;;;;;;;;;11.90;1.00;;;;;;5421521;26;19936;-74
2024/04/26 10:22:46;;;;;;;;;;;12.10;1.00;;;;;;5420892;26;20268;-75
2024/04/26 10:25:24;;;;;;;;;;;12.30;1.00;;;;;;5420976;26;19929;-75
2024/04/26 10:27:49;;;;;;;;;;;12.40;1.00;;;;;;5420763;26;19956;-74
2024/04/26 10:30:15;;;;;;;;;;;12.50;1.00;;;;;;5421365;26;20300;-75
2024/04/26 10:32:41;;;;;;;;;;;12.50;1.00;;;;;;5420517;26;19937;-75
2024/04/26 10:35:16;;;;;;;;;;;12.50;1.00;;;;;;5421793;26;19929;-74
2024/04/26 10:37:43;;;;;;;;;;;12.60;1.00;;;;;;5421701;26;19929;-74
2024/04/26 10:40:09;;;;;;;;;;;12.90;1.00;;;;;;5421439;26;19998;-74
2024/04/26 10:42:39;;;;;;;;;;;12.80;1.00;;;;;;5420621;26;19937;-74
2024/04/26 10:45:05;;;;;;;;;;;12.80;1.00;;;;;;5421297;26;19929;-75
2024/04/26 10:47:31;;;;;;;;;;;12.60;1.00;;;;;;5417842;26;19937;-72
2024/04/26 10:49:56;;;;;;;;;;;12.50;1.00;;;;;;5418186;26;19936;-72
2024/04/26 10:52:22;;;;;;;;;;;12.20;1.00;;;;;;5417767;26;20367;-73
2024/04/26 10:54:49;;;;;;;;;;;12.10;1.00;;;;;;5418316;26;19929;-72
2024/04/26 10:57:19;;;;;;;;;;;12.10;1.00;;;;;;5418195;26;19936;-72
2024/04/26 10:59:53;;;;;;;;;;;12.10;1.00;;;;;;5418051;26;19940;-72
2024/04/26 11:02:21;;;;;;;;;;;12.00;1.00;;;;;;5418032;26;19935;-72
2024/04/26 11:04:47;;;;;;;;;;;12.10;4.00;;;;;;5418286;26;19929;-72
2024/04/26 11:07:17;;;;;;;;;;;12.30;1.00;;;;;;5417906;26;19929;-73
2024/04/26 11:09:47;;;;;;;;;;;12.40;1.00;;;;;;5418296;26;19937;-72
2024/04/26 11:12:13;;;;;;;;;;;12.50;1.00;;;;;;5417346;26;20281;-72
2024/04/26 11:14:38;;;;;;;;;;;12.60;1.00;;;;;;5417881;26;19929;-73
2024/04/26 11:17:04;;;;;;;;;;;13.20;1.00;;;;;;5417868;26;20002;-73
2024/04/26 11:19:30;;;;;;;;;;;13.40;1.00;;;;;;5417763;26;20379;-74
2024/04/26 11:21:56;;;;;;;;;;;13.50;1.00;;;;;;5415471;26;19941;-74
2024/04/26 11:24:24;;;;;;;;;;;14.00;1.00;;;;;;5417724;26;20364;-73
2024/04/26 11:26:50;;;;;;;;;;;14.20;1.00;;;;;;5418017;26;19933;-74
2024/04/26 11:29:15;;;;;;;;;;;14.20;1.00;;;;;;5418263;26;20334;-75
2024/04/26 11:31:41;;;;;;;;;;;14.40;1.00;;;;;;5425311;26;20002;-75
2024/04/26 11:34:07;;;;;;;;;;;14.60;1.00;;;;;;5425332;26;19936;-75
2024/04/26 11:36:32;;;;;;;;;;;14.90;1.00;;;;;;5424777;26;19928;-75
2024/04/26 11:38:58;;;;;;;;;;;15.00;1.00;;;;;;5423603;26;20013;-75
2024/04/26 11:41:23;;;;;;;;;;;14.80;1.00;;;;;;5422480;26;19929;-75
2024/04/26 11:43:49;;;;;;;;;;;14.70;1.00;;;;;;5426523;26;19936;-73
2024/04/26 11:46:14;;;;;;;;;;;14.80;1.00;;;;;;5420543;26;19936;-75
2024/04/26 11:48:40;;;;;;;;;;;14.60;1.00;;;;;;5426618;26;19974;-75
2024/04/26 11:51:05;;;;;;;;;;;14.80;1.00;;;;;;5424457;26;19929;-75
2024/04/26 11:53:31;;;;;;;;;;;15.10;1.00;;;;;;5425478;26;19940;-73
2024/04/26 11:55:58;;;;;;;;;;;15.10;1.00;;;;;;5424902;26;20002;-75
2024/04/26 11:58:23;;;;;;;;;;;15.20;1.00;;;;;;5425576;26;19929;-74
2024/04/26 12:00:49;;;;;;;;;;;15.10;1.00;;;;;;5427570;26;19929;-73
2024/04/26 12:03:14;;;;;;;;;;;15.30;1.00;;;;;;5423833;26;19929;-75
2024/04/26 12:05:43;;;;;;;;;;;15.70;1.00;;;;;;5424739;26;19929;-75
2024/04/26 12:08:08;;;;;;;;;;;15.80;1.00;;;;;;5421666;26;19929;-72
2024/04/26 12:10:34;;;;;;;;;;;15.90;1.00;;;;;;5416946;26;20397;-72
2024/04/26 12:13:00;;;;;;;;;;;15.90;1.00;;;;;;5417125;26;20265;-73
2024/04/26 12:15:29;;;;;;;;;;;16.10;1.00;;;;;;5417171;26;19929;-73
2024/04/26 12:17:54;;;;;;;;;;;15.70;1.00;;;;;;5417103;26;19929;-73
2024/04/26 12:20:20;;;;;;;;;;;15.30;1.00;;;;;;5417065;26;20261;-72
2024/04/26 12:22:45;;;;;;;;;;;14.90;1.00;;;;;;5416728;26;20015;-74
2024/04/26 12:25:11;;;;;;;;;;;15.10;1.00;;;;;;5422435;26;20272;-75
2024/04/26 12:27:40;;;;;;;;;;;15.50;1.00;;;;;;5418093;26;20361;-75
2024/04/26 12:30:06;;;;;;;;;;;15.40;1.00;;;;;;5421316;26;19937;-73
2024/04/26 12:32:33;;;;;;;;;;;15.20;1.00;;;;;;5419462;26;19947;-75
2024/04/26 12:34:58;;;;;;;;;;;15.30;1.00;;;;;;5419412;26;19929;-75
2024/04/26 12:37:24;;;;;;;;;;;15.20;1.00;;;;;;5419541;26;19941;-75
2024/04/26 12:39:56;;;;;;;;;;;15.20;1.00;;;;;;5413619;26;19961;-73
2024/04/26 12:42:22;;;;;;;;;;;15.40;1.00;;;;;;5430648;26;19968;-75
2024/04/26 12:44:51;;;;;;;;;;;15.70;1.00;;;;;;5424828;26;19929;-76
2024/04/26 12:47:20;;;;;;;;;;;15.90;1.00;;;;;;5420081;26;19943;-74
2024/04/26 12:49:46;;;;;;;;;;;15.80;1.00;;;;;;5416658;26;19940;-73
2024/04/26 12:52:12;;;;;;;;;;;16.00;1.00;;;;;;5418310;26;19956;-74
2024/04/26 12:54:37;;;;;;;;;;;16.10;1.00;;;;;;5412685;26;19937;-75
2024/04/26 12:57:03;;;;;;;;;;;16.30;1.00;;;;;;5415976;26;19935;-75
2024/04/26 12:59:29;;;;;;;;;;;16.20;1.00;;;;;;5420052;26;19948;-72
2024/04/26 13:01:54;;;;;;;;;;;16.30;1.00;;;;;;5426712;26;19974;-72
2024/04/26 13:04:20;;;;;;;;;;;16.30;1.00;;;;;;5426385;26;19921;-74
2024/04/26 13:06:45;;;;;;;;;;;16.20;1.00;;;;;;5426776;26;20404;-74
2024/04/26 13:09:11;;;;;;;;;;;16.30;1.00;;;;;;5411892;26;19937;-75
2024/04/26 13:11:37;;;;;;;;;;;16.30;1.00;;;;;;5419403;26;19975;-73
2024/04/26 13:14:02;;;;;;;;;;;15.80;1.00;;;;;;5410092;26;19929;-75
2024/04/26 13:16:28;;;;;;;;;;;15.20;1.00;;;;;;5414863;26;19944;-75
2024/04/26 13:18:53;;;;;;;;;;;15.00;1.00;;;;;;5415702;26;19929;-75
2024/04/26 13:21:19;;;;;;;;;;;15.10;1.00;;;;;;5415154;26;19936;-74
2024/04/26 13:23:45;;;;;;;;;;;15.40;1.00;;;;;;5415780;26;19998;-75
2024/04/26 13:26:10;;;;;;;;;;;15.80;1.00;;;;;;5415662;26;19936;-75
2024/04/26 13:28:36;;;;;;;;;;;15.90;1.00;;;;;;5415512;26;19929;-76
2024/04/26 13:31:01;;;;;;;;;;;16.20;1.00;;;;;;5415040;26;19962;-75
2024/04/26 13:33:27;;;;;;;;;;;16.60;1.00;;;;;;5415031;26;19929;-75
2024/04/26 13:35:52;;;;;;;;;;;16.90;1.00;;;;;;5415521;26;19936;-76
2024/04/26 13:38:18;;;;;;;;;;;16.90;1.00;;;;;;5414526;26;19929;-75
2024/04/26 13:40:44;;;;;;;;;;;17.10;1.00;;;;;;5415421;26;19941;-75
2024/04/26 13:43:09;;;;;;;;;;;17.40;1.00;;;;;;5409121;26;20003;-75
2024/04/26 13:45:35;;;;;;;;;;;17.70;1.00;;;;;;5416105;26;19929;-71
2024/04/26 13:48:00;;;;;;;;;;;18.00;1.00;;;;;;5403123;26;19998;-75
2024/04/26 13:50:26;;;;;;;;;;;17.90;1.00;;;;;;5415109;26;19972;-75
2024/04/26 13:52:51;;;;;;;;;;;18.50;1.00;;;;;;5418686;26;20301;-75
2024/04/26 13:55:17;;;;;;;;;;;19.30;1.00;;;;;;5415086;26;19998;-75
2024/04/26 13:57:42;;;;;;;;;;;19.90;1.00;;;;;;5424006;26;19936;-75
2024/04/26 14:00:08;;;;;;;;;;;20.30;1.00;;;;;;5414593;26;19936;-75
2024/04/26 14:02:34;;;;;;;;;;;19.60;1.00;;;;;;5420961;26;19929;-75
2024/04/26 14:05:00;;;;;;;;;;;19.20;1.00;;;;;;5423973;26;19943;-75
2024/04/26 14:07:28;;;;;;;;;;;18.90;1.00;;;;;;5409645;26;20369;-74
2024/04/26 14:09:54;;;;;;;;;;;18.80;1.00;;;;;;5416243;26;20257;-76
2024/04/26 14:12:19;;;;;;;;;;;19.00;1.00;;;;;;5418223;26;19975;-76
2024/04/26 14:14:45;;;;;;;;;;;19.10;1.00;;;;;;5428483;26;20414;-76
2024/04/26 14:17:11;;;;;;;;;;;19.30;1.00;;;;;;5425015;26;19937;-76
2024/04/26 14:19:36;;;;;;;;;;;19.30;1.00;;;;;;5422296;26;19929;-76
2024/04/26 14:22:02;;;;;;;;;;;19.30;1.00;;;;;;5403762;26;19929;-74
2024/04/26 14:24:27;;;;;;;;;;;19.20;1.00;;;;;;5418180;26;19940;-76
2024/04/26 14:26:53;;;;;;;;;;;19.00;1.00;;;;;;5426905;26;19936;-76
2024/04/26 14:29:18;;;;;;;;;;;19.10;1.00;;;;;;5426882;26;19929;-75
2024/04/26 14:31:44;;;;;;;;;;;19.30;1.00;;;;;;5409155;26;19937;-75